createdAt,value
2018-06-29T00:02:06.641Z,101725.77
2018-06-29T00:04:33.861Z,101730.05
2018-06-29T00:07:00.842Z,101724.03
2018-06-29T00:09:27.861Z,101722.70
2018-06-29T00:11:54.894Z,101716.85
2018-06-29T00:14:22.063Z,101717.19
2018-06-29T00:16:48.881Z,101722.31
2018-06-29T00:19:15.911Z,101716.33
2018-06-29T00:21:42.895Z,101709.17
2018-06-29T00:24:10.322Z,101712.29
2018-06-29T00:26:37.285Z,101706.31
2018-06-29T00:29:04.292Z,101706.45
2018-06-29T00:31:31.257Z,101705.29
2018-06-29T00:33:58.249Z,101709.92
2018-06-29T00:36:25.242Z,101717.16
2018-06-29T00:38:52.237Z,101718.30
2018-06-29T00:41:19.209Z,101719.80
2018-06-29T00:43:46.233Z,101718.63
2018-06-29T00:46:13.204Z,101718.09
2018-06-29T00:48:40.213Z,101720.91
2018-06-29T00:51:07.226Z,101716.39
2018-06-29T00:53:34.197Z,101712.72
2018-06-29T00:56:01.202Z,101715.36
2018-06-29T00:58:28.226Z,101709.75
2018-06-29T01:00:55.250Z,101707.72
2018-06-29T01:03:22.278Z,101709.04
2018-06-29T01:05:49.277Z,101712.50
2018-06-29T01:08:16.257Z,101715.28
2018-06-29T01:10:43.273Z,101712.96
2018-06-29T01:13:10.288Z,101716.58
2018-06-29T01:15:37.305Z,101713.27
2018-06-29T01:18:04.356Z,101707.77
2018-06-29T01:20:31.394Z,101702.09
2018-06-29T01:22:58.381Z,101698.09
2018-06-29T01:25:25.369Z,101706.17
2018-06-29T01:27:52.370Z,101702.84
2018-06-29T01:30:19.441Z,101704.47
2018-06-29T01:32:46.477Z,101701.81
2018-06-29T01:35:13.505Z,101697.52
2018-06-29T01:37:40.489Z,101693.84
2018-06-29T01:40:07.498Z,101688.36
2018-06-29T01:42:34.501Z,101676.44
2018-06-29T01:45:01.498Z,101675.25
2018-06-29T01:47:28.518Z,101680.55
2018-06-29T01:49:55.493Z,101677.67
2018-06-29T01:52:22.493Z,101678.13
2018-06-29T01:54:49.481Z,101672.52
2018-06-29T01:57:16.477Z,101675.97
2018-06-29T01:59:43.837Z,101678.94
2018-06-29T02:02:10.807Z,101684.52
2018-06-29T02:04:38.265Z,101681.33
2018-06-29T02:07:05.349Z,101673.06
2018-06-29T02:09:32.320Z,101668.06
2018-06-29T02:11:59.298Z,101664.38
2018-06-29T02:14:26.316Z,101660.58
2018-06-29T02:16:53.343Z,101652.77
2018-06-29T02:19:20.365Z,101653.09
2018-06-29T02:21:47.557Z,101651.89
2018-06-29T02:24:14.573Z,101647.70
2018-06-29T02:26:41.565Z,101654.61
2018-06-29T02:29:08.540Z,101655.89
2018-06-29T02:31:35.557Z,101645.60
2018-06-29T02:34:02.533Z,101650.21
2018-06-29T02:36:29.793Z,101646.53
2018-06-29T02:38:56.787Z,101647.86
2018-06-29T02:41:23.778Z,101653.44
2018-06-29T02:43:51.509Z,101653.40
2018-06-29T02:46:18.502Z,101654.84
2018-06-29T02:48:45.493Z,101658.62
2018-06-29T02:51:12.531Z,101654.45
2018-06-29T02:53:39.558Z,101650.16
2018-06-29T02:56:06.586Z,101646.00
2018-06-29T02:58:33.553Z,101645.64
2018-06-29T03:01:01.156Z,101615.46
2018-06-29T03:03:28.125Z,101646.45
2018-06-29T03:05:55.133Z,101647.57
2018-06-29T03:08:22.141Z,101654.80
2018-06-29T03:10:49.137Z,101656.95
2018-06-29T03:13:16.133Z,101658.27
2018-06-29T03:15:43.153Z,101664.05
2018-06-29T03:18:10.145Z,101653.14
2018-06-29T03:20:37.185Z,101654.59
2018-06-29T03:23:04.313Z,101642.50
2018-06-29T03:25:31.300Z,101639.85
2018-06-29T03:27:58.317Z,101642.17
2018-06-29T03:30:25.301Z,101636.72
2018-06-29T03:32:52.718Z,101640.56
2018-06-29T03:35:19.635Z,101641.38
2018-06-29T03:37:46.629Z,101645.14
2018-06-29T03:40:13.718Z,101647.45
2018-06-29T03:42:40.698Z,101636.33
2018-06-29T03:45:07.680Z,101630.20
2018-06-29T03:47:34.773Z,101630.40
2018-06-29T03:50:01.938Z,101630.91
2018-06-29T03:52:28.923Z,101633.40
2018-06-29T03:54:55.929Z,101632.56
2018-06-29T03:57:22.937Z,101630.27
2018-06-29T03:59:49.943Z,101632.27
2018-06-29T04:02:16.932Z,101629.34
2018-06-29T04:04:43.913Z,101628.70
2018-06-29T04:07:10.925Z,101635.02
2018-06-29T04:09:37.932Z,101634.38
2018-06-29T04:12:04.950Z,101630.13
2018-06-29T04:14:31.998Z,101630.33
2018-06-29T04:16:58.989Z,101627.39
2018-06-29T04:19:26.001Z,101624.42
2018-06-29T04:21:53.393Z,101625.11
2018-06-29T04:24:20.435Z,101630.95
2018-06-29T04:26:47.406Z,101634.63
2018-06-29T04:29:14.514Z,101627.20
2018-06-29T04:31:41.653Z,101628.59
2018-06-29T04:34:08.633Z,101625.14
2018-06-29T04:36:35.613Z,101615.95
2018-06-29T04:39:03.505Z,101616.23
2018-06-29T04:41:30.701Z,101611.08
2018-06-29T04:43:57.677Z,101614.13
2018-06-29T04:46:24.700Z,101607.75
2018-06-29T04:48:51.661Z,101610.75
2018-06-29T04:51:18.753Z,101605.41
2018-06-29T04:53:45.744Z,101607.69
2018-06-29T04:56:12.749Z,101608.16
2018-06-29T04:58:39.733Z,101618.56
2018-06-29T05:01:06.769Z,101614.57
2018-06-29T05:03:33.808Z,101614.87
2018-06-29T05:06:00.789Z,101611.87
2018-06-29T05:08:27.801Z,101615.84
2018-06-29T05:10:54.764Z,101616.03
2018-06-29T05:13:21.769Z,101622.22
2018-06-29T05:15:48.779Z,101615.94
2018-06-29T05:18:15.769Z,101616.28
2018-06-29T05:20:42.750Z,101610.63
2018-06-29T05:23:09.785Z,101608.82
2018-06-29T05:25:36.798Z,101609.36
2018-06-29T05:28:03.941Z,101613.03
2018-06-29T05:30:30.982Z,101600.64
2018-06-29T05:32:58.053Z,101610.94
2018-06-29T05:35:25.137Z,101612.44
2018-06-29T05:37:52.138Z,101610.30
2018-06-29T05:40:19.122Z,101605.84
2018-06-29T05:42:46.351Z,101607.40
2018-06-29T05:45:13.153Z,101603.61
2018-06-29T05:47:40.145Z,101603.97
2018-06-29T05:50:07.765Z,101604.33
2018-06-29T05:52:34.971Z,101600.55
2018-06-29T05:55:02.004Z,101606.73
2018-06-29T05:57:29.011Z,101587.85
2018-06-29T05:59:56.113Z,101586.39
2018-06-29T06:02:23.136Z,101591.39
2018-06-29T06:04:50.153Z,101580.81
2018-06-29T06:07:17.157Z,101576.88
2018-06-29T06:09:44.167Z,101579.70
2018-06-29T06:12:11.144Z,101575.72
2018-06-29T06:14:38.133Z,101576.23
2018-06-29T06:17:05.118Z,101571.13
2018-06-29T06:19:43.581Z,101578.42
2018-06-29T06:22:10.551Z,101573.81
2018-06-29T06:24:37.649Z,101575.80
2018-06-29T06:27:04.663Z,101581.27
2018-06-29T06:29:31.689Z,101575.50
2018-06-29T06:31:58.681Z,101580.48
2018-06-29T06:34:25.685Z,101582.14
2018-06-29T06:36:52.869Z,101580.17
2018-06-29T06:39:19.910Z,101576.03
2018-06-29T06:41:46.881Z,101578.52
2018-06-29T06:44:14.318Z,101574.02
2018-06-29T06:46:41.335Z,101576.84
2018-06-29T06:49:08.525Z,101570.88
2018-06-29T06:51:35.488Z,101573.19
2018-06-29T06:54:03.189Z,101570.86
2018-06-29T06:56:30.157Z,101567.55
2018-06-29T06:58:57.185Z,101567.17
2018-06-29T07:01:24.165Z,101567.16
2018-06-29T07:03:51.157Z,101568.14
2018-06-29T07:06:18.149Z,101563.00
2018-06-29T07:08:45.113Z,101557.97
2018-06-29T07:11:12.328Z,101561.44
2018-06-29T07:13:39.325Z,101557.77
2018-06-29T07:16:06.440Z,101558.23
2018-06-29T07:18:33.435Z,101551.42
2018-06-29T07:21:00.754Z,101547.06
2018-06-29T07:23:27.758Z,101542.88
2018-06-29T07:25:54.781Z,101540.00
2018-06-29T07:28:21.797Z,101538.32
2018-06-29T07:30:48.801Z,101529.31
2018-06-29T07:33:15.806Z,101523.80
2018-06-29T07:35:42.790Z,101523.91
2018-06-29T07:38:09.762Z,101524.88
2018-06-29T07:40:36.749Z,101527.66
2018-06-29T07:43:03.753Z,101526.30
2018-06-29T07:45:30.760Z,101525.58
2018-06-29T07:47:57.777Z,101527.39
2018-06-29T07:50:24.794Z,101532.33
2018-06-29T07:52:51.901Z,101528.13
2018-06-29T07:55:18.856Z,101528.52
2018-06-29T07:57:45.813Z,101540.80
2018-06-29T08:00:12.818Z,101536.09
2018-06-29T08:02:39.962Z,101533.72
2018-06-29T08:05:06.959Z,101538.35
2018-06-29T08:07:33.933Z,101530.66
2018-06-29T08:10:00.950Z,101527.34
2018-06-29T08:12:27.951Z,101530.64
2018-06-29T08:14:54.957Z,101521.26
2018-06-29T08:17:22.026Z,101529.68
2018-06-29T08:19:49.362Z,101531.16
2018-06-29T08:22:16.373Z,101521.49
2018-06-29T08:24:54.854Z,101525.14
2018-06-29T08:27:22.003Z,101526.11
2018-06-29T08:29:49.437Z,101528.86
2018-06-29T08:32:16.469Z,101526.75
2018-06-29T08:34:43.438Z,101520.93
2018-06-29T08:37:10.425Z,101520.01
2018-06-29T08:39:37.393Z,101514.50
2018-06-29T08:42:04.550Z,101514.94
2018-06-29T08:44:31.516Z,101503.91
2018-06-29T08:46:58.634Z,101515.11
2018-06-29T08:49:25.545Z,101512.01
2018-06-29T08:51:52.576Z,101513.94
2018-06-29T08:54:19.536Z,101514.23
2018-06-29T08:56:46.526Z,101500.82
2018-06-29T08:59:13.547Z,101496.20
2018-06-29T09:01:40.538Z,101498.63
2018-06-29T09:04:07.521Z,101495.18
2018-06-29T09:06:34.503Z,101503.83
2018-06-29T09:09:01.527Z,101499.07
2018-06-29T09:11:28.525Z,101497.28
2018-06-29T09:13:55.528Z,101495.20
2018-06-29T09:16:22.525Z,101501.22
2018-06-29T09:18:49.489Z,101494.08
2018-06-29T09:21:16.533Z,101490.77
2018-06-29T09:23:43.541Z,101502.32
2018-06-29T09:26:10.556Z,101498.52
2018-06-29T09:28:37.517Z,101496.28
2018-06-29T09:31:04.538Z,101504.22
2018-06-29T09:33:31.781Z,101499.68
2018-06-29T09:35:58.856Z,101499.86
2018-06-29T09:38:25.845Z,101507.85
2018-06-29T09:40:52.821Z,101501.55
2018-06-29T09:43:19.869Z,101505.64
2018-06-29T09:45:46.847Z,101488.77
2018-06-29T09:48:14.107Z,101492.76
2018-06-29T09:50:41.042Z,101493.75
2018-06-29T09:53:08.055Z,101490.34
2018-06-29T09:55:35.054Z,101476.12
2018-06-29T09:58:02.057Z,101483.49
2018-06-29T10:00:30.397Z,101485.66
2018-06-29T10:02:57.782Z,101484.32
2018-06-29T10:05:25.058Z,101492.36
2018-06-29T10:07:52.106Z,101484.77
2018-06-29T10:10:19.165Z,101492.69
2018-06-29T10:12:46.137Z,101479.86
2018-06-29T10:15:13.101Z,101478.64
2018-06-29T10:17:40.105Z,101477.59
2018-06-29T10:20:07.252Z,101474.00
2018-06-29T10:22:34.234Z,101472.56
2018-06-29T10:25:01.235Z,101466.52
2018-06-29T10:27:28.257Z,101458.16
2018-06-29T10:29:55.493Z,101462.11
2018-06-29T10:32:22.497Z,101466.29
2018-06-29T10:34:49.481Z,101453.20
2018-06-29T10:37:16.486Z,101454.86
2018-06-29T10:39:43.496Z,101449.69
2018-06-29T10:42:10.472Z,101459.41
2018-06-29T10:44:37.481Z,101454.13
2018-06-29T10:47:04.493Z,101444.64
2018-06-29T10:49:31.501Z,101442.67
2018-06-29T10:51:58.472Z,101441.13
2018-06-29T10:54:25.441Z,101446.93
2018-06-29T10:56:52.430Z,101434.22
2018-06-29T10:59:19.461Z,101433.52
2018-06-29T11:01:46.445Z,101434.75
2018-06-29T11:04:13.434Z,101430.00
2018-06-29T11:06:40.549Z,101431.84
2018-06-29T11:09:08.372Z,101441.34
2018-06-29T11:11:35.409Z,101434.51
2018-06-29T11:14:02.542Z,101434.61
2018-06-29T11:16:29.528Z,101420.17
2018-06-29T11:18:56.575Z,101413.94
2018-06-29T11:21:23.914Z,101416.02
2018-06-29T11:23:50.888Z,101419.41
2018-06-29T11:26:17.888Z,101422.28
2018-06-29T11:28:44.892Z,101427.04
2018-06-29T11:31:11.925Z,101408.95
2018-06-29T11:33:38.913Z,101411.51
2018-06-29T11:36:06.124Z,101413.55
2018-06-29T11:38:33.126Z,101410.94
2018-06-29T11:41:00.122Z,101410.37
2018-06-29T11:43:27.121Z,101410.42
2018-06-29T11:45:54.095Z,101400.35
2018-06-29T11:48:21.096Z,101405.48
2018-06-29T11:50:48.077Z,101400.45
2018-06-29T11:53:15.079Z,101400.91
2018-06-29T11:55:42.077Z,101404.82
2018-06-29T11:58:09.056Z,101400.50
2018-06-29T12:00:36.082Z,101398.43
2018-06-29T12:03:03.129Z,101392.03
2018-06-29T12:05:30.249Z,101396.31
2018-06-29T12:07:57.294Z,101392.94
2018-06-29T12:10:24.293Z,101389.42
2018-06-29T12:12:51.297Z,101380.48
2018-06-29T12:15:18.381Z,101381.67
2018-06-29T12:17:45.437Z,101385.55
2018-06-29T12:20:12.467Z,101384.78
2018-06-29T12:22:39.455Z,101374.36
2018-06-29T12:25:06.481Z,101379.94
2018-06-29T12:27:33.529Z,101383.11
2018-06-29T12:30:01.008Z,101387.84
2018-06-29T12:32:28.029Z,101378.03
2018-06-29T12:34:55.017Z,101379.76
2018-06-29T12:37:21.989Z,101373.88
2018-06-29T12:39:49.029Z,101372.49
2018-06-29T12:42:16.061Z,101364.95
2018-06-29T12:44:43.036Z,101366.91
2018-06-29T12:47:10.029Z,101369.34
2018-06-29T12:49:37.029Z,101360.37
2018-06-29T12:52:04.049Z,101362.91
2018-06-29T12:54:31.025Z,101354.49
2018-06-29T12:56:58.016Z,101351.03
2018-06-29T12:59:24.985Z,101359.30
2018-06-29T13:01:51.953Z,101356.48
2018-06-29T13:04:18.973Z,101345.64
2018-06-29T13:06:45.961Z,101344.22
2018-06-29T13:09:12.925Z,101359.44
2018-06-29T13:11:39.889Z,101343.88
2018-06-29T13:14:07.119Z,101344.39
2018-06-29T13:16:34.649Z,101342.53
2018-06-29T13:19:01.637Z,101340.61
2018-06-29T13:21:28.657Z,101328.30
2018-06-29T13:23:55.656Z,101338.81
2018-06-29T13:26:22.724Z,101345.69
2018-06-29T13:28:49.714Z,101340.68
2018-06-29T13:31:16.721Z,101339.58
2018-06-29T13:33:43.823Z,101334.02
2018-06-29T13:36:10.898Z,101349.13
2018-06-29T13:38:37.877Z,101341.60
2018-06-29T13:41:04.905Z,101338.47
2018-06-29T13:43:31.900Z,101340.09
2018-06-29T13:45:58.937Z,101330.73
2018-06-29T13:48:25.925Z,101339.70
2018-06-29T13:50:52.925Z,101335.68
2018-06-29T13:53:19.901Z,101337.85
2018-06-29T13:55:46.917Z,101330.61
2018-06-29T13:58:13.879Z,101330.22
2018-06-29T14:00:40.873Z,101336.91
2018-06-29T14:03:07.846Z,101337.25
2018-06-29T14:05:34.856Z,101343.53
2018-06-29T14:08:01.837Z,101335.52
2018-06-29T14:10:28.819Z,101340.09
2018-06-29T14:12:55.789Z,101339.16
2018-06-29T14:15:22.961Z,101342.64
2018-06-29T14:17:50.229Z,101337.51
2018-06-29T14:20:17.221Z,101332.59
2018-06-29T14:22:44.223Z,101326.13
2018-06-29T14:25:11.208Z,101334.01
2018-06-29T14:27:38.250Z,101330.03
2018-06-29T14:30:05.728Z,101327.48
2018-06-29T14:32:33.667Z,101331.80
2018-06-29T14:35:00.684Z,101335.47
2018-06-29T14:37:27.701Z,101337.47
2018-06-29T14:39:54.670Z,101340.78
2018-06-29T14:42:21.676Z,101344.58
2018-06-29T14:44:48.661Z,101336.14
2018-06-29T14:47:15.637Z,101333.52
2018-06-29T14:49:42.629Z,101321.14
2018-06-29T14:52:09.597Z,101329.20
2018-06-29T14:54:36.645Z,101339.86
2018-06-29T14:57:03.889Z,101336.58
2018-06-29T14:59:30.873Z,101327.31
2018-06-29T15:01:57.921Z,101331.70
2018-06-29T15:04:24.908Z,101335.54
2018-06-29T15:06:51.889Z,101331.61
2018-06-29T15:09:18.885Z,101332.44
2018-06-29T15:11:46.018Z,101325.52
2018-06-29T15:14:13.018Z,101331.05
2018-06-29T15:16:40.025Z,101327.61
2018-06-29T15:19:06.994Z,101323.78
2018-06-29T15:21:34.206Z,101323.98
2018-06-29T15:24:02.088Z,101323.16
2018-06-29T15:26:29.299Z,101320.63
2018-06-29T15:28:56.297Z,101324.89
2018-06-29T15:31:23.329Z,101322.84
2018-06-29T15:33:50.292Z,101324.41
2018-06-29T15:36:17.500Z,101325.25
2018-06-29T15:38:44.488Z,101323.30
2018-06-29T15:41:11.496Z,101324.56
2018-06-29T15:43:38.472Z,101323.81
2018-06-29T15:46:05.521Z,101333.73
2018-06-29T15:48:32.533Z,101329.77
2018-06-29T15:50:59.553Z,101329.08
2018-06-29T15:53:26.548Z,101325.48
2018-06-29T15:55:53.609Z,101320.69
2018-06-29T15:58:20.683Z,101318.20
2018-06-29T16:00:47.653Z,101321.34
2018-06-29T16:03:14.733Z,101328.86
2018-06-29T16:05:41.786Z,101320.77
2018-06-29T16:08:08.765Z,101320.69
2018-06-29T16:10:35.759Z,101316.38
2018-06-29T16:13:02.725Z,101318.66
2018-06-29T16:15:29.712Z,101318.80
2018-06-29T16:17:56.693Z,101324.59
2018-06-29T16:20:24.167Z,101317.78
2018-06-29T16:22:51.145Z,101316.81
2018-06-29T16:25:18.121Z,101311.53
2018-06-29T16:27:45.129Z,101313.98
2018-06-29T16:30:12.101Z,101320.61
2018-06-29T16:32:39.125Z,101312.30
2018-06-29T16:35:06.412Z,101319.42
2018-06-29T16:37:33.458Z,101318.31
2018-06-29T16:40:00.390Z,101312.72
2018-06-29T16:42:27.381Z,101321.59
2018-06-29T16:44:54.415Z,101314.06
2018-06-29T16:47:21.440Z,101323.54
2018-06-29T16:49:48.409Z,101329.42
2018-06-29T16:52:15.507Z,101326.65
2018-06-29T16:54:42.487Z,101319.66
2018-06-29T16:57:09.505Z,101322.98
2018-06-29T16:59:36.509Z,101322.44
2018-06-29T17:02:03.522Z,101319.06
2018-06-29T17:04:30.693Z,101326.13
2018-06-29T17:06:57.681Z,101321.14
2018-06-29T17:09:24.673Z,101320.95
2018-06-29T17:11:51.699Z,101321.66
2018-06-29T17:14:18.685Z,101328.08
2018-06-29T17:16:45.676Z,101324.79
2018-06-29T17:19:12.676Z,101327.99
2018-06-29T17:21:40.117Z,101335.76
2018-06-29T17:24:07.090Z,101339.78
2018-06-29T17:26:34.091Z,101339.59
2018-06-29T17:29:01.207Z,101340.62
2018-06-29T17:31:28.068Z,101346.40
2018-06-29T17:33:55.269Z,101350.33
2018-06-29T17:36:22.181Z,101345.37
2018-06-29T17:38:49.189Z,101347.33
2018-06-29T17:41:16.289Z,101346.30
2018-06-29T17:43:43.289Z,101345.05
2018-06-29T17:46:10.261Z,101350.89
2018-06-29T17:48:37.337Z,101337.47
2018-06-29T17:51:04.515Z,101340.44
2018-06-29T17:53:31.541Z,101345.39
2018-06-29T17:55:58.521Z,101343.30
2018-06-29T17:58:25.615Z,101347.65
2018-06-29T18:00:52.684Z,101346.16
2018-06-29T18:03:19.626Z,101343.34
2018-06-29T18:05:46.605Z,101350.31
2018-06-29T18:08:13.617Z,101344.59
2018-06-29T18:10:40.602Z,101349.31
2018-06-29T18:13:07.677Z,101337.12
2018-06-29T18:15:34.861Z,101344.38
2018-06-29T18:18:01.965Z,101330.03
2018-06-29T18:20:28.897Z,101347.45
2018-06-29T18:22:55.937Z,101347.62
2018-06-29T18:25:22.902Z,101347.45
2018-06-29T18:27:49.938Z,101357.97
2018-06-29T18:30:17.066Z,101355.23
2018-06-29T18:32:44.081Z,101361.89
2018-06-29T18:35:11.102Z,101361.02
2018-06-29T18:37:38.189Z,101366.20
2018-06-29T18:40:05.210Z,101364.89
2018-06-29T18:42:32.201Z,101371.91
2018-06-29T18:44:59.204Z,101374.02
2018-06-29T18:47:26.185Z,101375.28
2018-06-29T18:49:53.278Z,101371.08
2018-06-29T18:52:20.390Z,101378.69
2018-06-29T18:54:47.380Z,101381.00
2018-06-29T18:57:14.373Z,101382.93
2018-06-29T18:59:41.361Z,101385.17
2018-06-29T19:02:08.361Z,101392.36
2018-06-29T19:04:35.373Z,101395.56
2018-06-29T19:07:02.360Z,101393.86
2018-06-29T19:09:29.350Z,101389.16
2018-06-29T19:11:56.334Z,101398.68
2018-06-29T19:14:23.425Z,101401.89
2018-06-29T19:16:50.395Z,101405.55
2018-06-29T19:19:17.705Z,101410.38
2018-06-29T19:21:44.813Z,101410.94
2018-06-29T19:24:11.833Z,101414.20
2018-06-29T19:26:38.804Z,101415.97
2018-06-29T19:29:05.821Z,101410.46
2018-06-29T19:31:32.795Z,101419.06
2018-06-29T19:33:59.844Z,101414.34
2018-06-29T19:36:26.917Z,101418.31
2018-06-29T19:38:53.975Z,101418.89
2018-06-29T19:41:21.217Z,101425.69
2018-06-29T19:43:48.201Z,101428.48
2018-06-29T19:46:15.161Z,101438.10
2018-06-29T19:48:42.509Z,101434.04
2018-06-29T19:51:09.487Z,101434.41
2018-06-29T19:53:36.486Z,101440.48
2018-06-29T19:56:03.549Z,101440.36
2018-06-29T19:58:30.757Z,101443.30
2018-06-29T20:00:57.736Z,101443.56
2018-06-29T20:03:24.722Z,101447.79
2018-06-29T20:05:51.705Z,101449.22
2018-06-29T20:08:18.670Z,101454.41
2018-06-29T20:10:45.757Z,101452.64
2018-06-29T20:13:12.757Z,101454.19
2018-06-29T20:15:39.745Z,101462.61
2018-06-29T20:18:06.754Z,101461.69
2018-06-29T20:20:33.768Z,101462.41
2018-06-29T20:23:00.751Z,101463.48
2018-06-29T20:25:27.767Z,101463.66
2018-06-29T20:27:54.745Z,101469.39
2018-06-29T20:30:21.776Z,101466.64
2018-06-29T20:32:48.765Z,101463.69
2018-06-29T20:35:15.753Z,101463.20
2018-06-29T20:37:42.757Z,101465.73
2018-06-29T20:40:09.765Z,101469.09
2018-06-29T20:42:36.774Z,101469.99
2018-06-29T20:45:03.847Z,101471.23
2018-06-29T20:47:30.909Z,101472.38
2018-06-29T20:49:57.957Z,101473.41
2018-06-29T20:52:24.932Z,101474.30
2018-06-29T20:54:51.913Z,101474.30
2018-06-29T20:57:18.901Z,101477.31
2018-06-29T20:59:46.153Z,101480.06
2018-06-29T21:02:13.205Z,101475.39
2018-06-29T21:04:40.221Z,101482.92
2018-06-29T21:07:07.241Z,101488.77
2018-06-29T21:09:34.289Z,101485.17
2018-06-29T21:12:01.274Z,101485.02
2018-06-29T21:14:28.337Z,101485.36
2018-06-29T21:16:55.318Z,101486.91
2018-06-29T21:19:22.318Z,101488.09
2018-06-29T21:21:49.305Z,101496.27
2018-06-29T21:24:16.405Z,101497.28
2018-06-29T21:26:43.433Z,101502.45
2018-06-29T21:29:10.421Z,101500.66
2018-06-29T21:31:37.426Z,101509.92
2018-06-29T21:34:04.570Z,101510.45
2018-06-29T21:36:31.574Z,101510.66
2018-06-29T21:38:58.536Z,101510.99
2018-06-29T21:41:25.540Z,101513.50
2018-06-29T21:43:52.517Z,101515.34
2018-06-29T21:46:19.657Z,101526.64
2018-06-29T21:48:46.653Z,101520.52
2018-06-29T21:51:13.685Z,101522.85
2018-06-29T21:53:40.682Z,101519.71
2018-06-29T21:56:07.769Z,101521.03
2018-06-29T21:58:34.773Z,101521.23
2018-06-29T22:01:01.882Z,101521.91
2018-06-29T22:03:28.870Z,101522.72
2018-06-29T22:05:55.881Z,101526.38
2018-06-29T22:08:22.879Z,101529.05
2018-06-29T22:10:49.968Z,101528.55
2018-06-29T22:13:17.098Z,101534.53
2018-06-29T22:15:44.106Z,101533.18
2018-06-29T22:18:11.088Z,101535.18
2018-06-29T22:20:38.105Z,101538.02
2018-06-29T22:23:05.113Z,101540.31
2018-06-29T22:25:32.137Z,101537.98
2018-06-29T22:27:59.149Z,101538.30
2018-06-29T22:30:26.441Z,101547.61
2018-06-29T22:32:53.441Z,101548.95
2018-06-29T22:35:21.184Z,101550.73
2018-06-29T22:37:48.165Z,101547.91
2018-06-29T22:40:15.162Z,101552.56
2018-06-29T22:42:42.197Z,101553.23
2018-06-29T22:45:09.187Z,101550.89
2018-06-29T22:47:36.189Z,101550.73
2018-06-29T22:50:03.571Z,101556.70
2018-06-29T22:52:30.638Z,101560.02
2018-06-29T22:54:57.681Z,101556.19
2018-06-29T22:57:25.305Z,101555.21
2018-06-29T22:59:52.433Z,101556.36
2018-06-29T23:02:19.430Z,101550.88
2018-06-29T23:04:46.411Z,101556.16
2018-06-29T23:07:13.409Z,101558.64
2018-06-29T23:09:40.481Z,101566.61
2018-06-29T23:12:07.494Z,101567.76
2018-06-29T23:14:34.485Z,101572.41
2018-06-29T23:17:01.545Z,101575.20
2018-06-29T23:19:28.533Z,101576.03
2018-06-29T23:21:55.537Z,101581.30
2018-06-29T23:24:22.980Z,101578.66
2018-06-29T23:26:49.973Z,101584.27
2018-06-29T23:29:16.958Z,101574.31
2018-06-29T23:31:43.945Z,101574.28
2018-06-29T23:34:11.228Z,101579.58
2018-06-29T23:36:38.296Z,101576.72
2018-06-29T23:39:06.634Z,101583.83
2018-06-29T23:41:33.661Z,101584.14
2018-06-29T23:44:00.666Z,101580.47
2018-06-29T23:46:27.656Z,101581.62
2018-06-29T23:48:54.634Z,101582.11
2018-06-29T23:51:21.638Z,101581.61
2018-06-29T23:53:48.633Z,101584.56
2018-06-29T23:56:15.661Z,101578.25
2018-06-29T23:58:42.666Z,101581.20
